createdAt,value
2018-07-23T00:00:14.197Z,1011.76
2018-07-23T00:01:14.208Z,1011.73
2018-07-23T00:02:14.212Z,1011.70
2018-07-23T00:03:14.409Z,1011.71
2018-07-23T00:04:14.211Z,1011.70
2018-07-23T00:05:14.211Z,1011.71
2018-07-23T00:06:14.216Z,1011.72
2018-07-23T00:07:14.229Z,1011.69
2018-07-23T00:08:14.226Z,1011.71
2018-07-23T00:09:14.239Z,1011.71
2018-07-23T00:10:14.229Z,1011.69
2018-07-23T00:11:14.231Z,1011.72
2018-07-23T00:12:14.443Z,1011.71
2018-07-23T00:13:14.264Z,1011.70
2018-07-23T00:14:14.270Z,1011.72
2018-07-23T00:15:14.248Z,1011.70
2018-07-23T00:16:14.261Z,1011.70
2018-07-23T00:17:14.251Z,1011.74
2018-07-23T00:18:14.254Z,1011.71
2018-07-23T00:19:14.256Z,1011.70
2018-07-23T00:20:14.270Z,1011.71
2018-07-23T00:21:14.280Z,1011.70
2018-07-23T00:22:14.291Z,1011.70
2018-07-23T00:23:14.473Z,1011.74
2018-07-23T00:24:14.274Z,1011.72
2018-07-23T00:25:14.275Z,1011.73
2018-07-23T00:26:14.279Z,1011.73
2018-07-23T00:27:14.285Z,1011.75
2018-07-23T00:28:14.285Z,1011.74
2018-07-23T00:29:14.301Z,1011.78
2018-07-23T00:30:14.303Z,1011.76
2018-07-23T00:31:14.507Z,1011.77
2018-07-23T00:32:14.296Z,1011.78
2018-07-23T00:33:14.299Z,1011.77
2018-07-23T00:34:14.324Z,1011.78
2018-07-23T00:35:14.309Z,1011.77
2018-07-23T00:36:14.314Z,1011.76
2018-07-23T00:37:14.311Z,1011.77
2018-07-23T00:38:14.326Z,1011.77
2018-07-23T00:39:14.328Z,1011.77
2018-07-23T00:40:14.537Z,1011.77
2018-07-23T00:41:14.321Z,1011.77
2018-07-23T00:42:14.345Z,1011.76
2018-07-23T00:43:14.337Z,1011.76
2018-07-23T00:44:14.329Z,1011.74
2018-07-23T00:45:14.343Z,1011.75
2018-07-23T00:46:14.337Z,1011.75
2018-07-23T00:47:14.340Z,1011.73
2018-07-23T00:48:14.342Z,1011.74
2018-07-23T00:49:14.354Z,1011.72
2018-07-23T00:50:14.345Z,1011.73
2018-07-23T00:51:14.359Z,1011.77
2018-07-23T00:52:14.352Z,1011.77
2018-07-23T00:53:14.354Z,1011.77
2018-07-23T00:54:14.366Z,1011.83
2018-07-23T00:55:14.392Z,1011.78
2018-07-23T00:56:14.364Z,1011.80
2018-07-23T00:57:14.383Z,1011.79
2018-07-23T00:58:14.390Z,1011.78
2018-07-23T00:59:14.370Z,1011.77
2018-07-23T01:00:14.376Z,1011.76
2018-07-23T01:01:14.390Z,1011.82
2018-07-23T01:02:14.381Z,1011.74
2018-07-23T01:03:14.382Z,1011.80
2018-07-23T01:04:14.387Z,1011.78
2018-07-23T01:05:14.435Z,1011.78
2018-07-23T01:06:14.405Z,1011.77
2018-07-23T01:07:14.395Z,1011.76
2018-07-23T01:08:14.426Z,1011.75
2018-07-23T01:09:14.400Z,1011.74
2018-07-23T01:10:14.432Z,1011.75
2018-07-23T01:11:14.406Z,1011.79
2018-07-23T01:12:14.408Z,1011.77
2018-07-23T01:13:14.410Z,1011.78
2018-07-23T01:14:14.421Z,1011.80
2018-07-23T01:15:14.413Z,1011.78
2018-07-23T01:16:14.416Z,1011.76
2018-07-23T01:17:14.419Z,1011.79
2018-07-23T01:18:14.423Z,1011.81
2018-07-23T01:19:14.424Z,1011.82
2018-07-23T01:20:14.427Z,1011.80
2018-07-23T01:21:14.430Z,1011.81
2018-07-23T01:22:14.436Z,1011.79
2018-07-23T01:23:14.637Z,1011.75
2018-07-23T01:24:14.439Z,1011.80
2018-07-23T01:25:14.443Z,1011.79
2018-07-23T01:26:14.648Z,1011.81
2018-07-23T01:27:14.456Z,1011.84
2018-07-23T01:28:14.452Z,1011.81
2018-07-23T01:29:14.453Z,1011.84
2018-07-23T01:30:14.455Z,1011.85
2018-07-23T01:31:14.458Z,1011.85
2018-07-23T01:32:14.474Z,1011.86
2018-07-23T01:33:14.464Z,1011.88
2018-07-23T01:34:14.466Z,1011.91
2018-07-23T01:35:14.471Z,1011.88
2018-07-23T01:36:14.679Z,1011.89
2018-07-23T01:37:14.477Z,1011.87
2018-07-23T01:38:14.480Z,1011.87
2018-07-23T01:39:14.689Z,1011.87
2018-07-23T01:40:14.507Z,1011.86
2018-07-23T01:41:14.489Z,1011.88
2018-07-23T01:42:14.493Z,1011.89
2018-07-23T01:43:14.711Z,1011.89
2018-07-23T01:44:14.495Z,1011.89
2018-07-23T01:45:14.515Z,1011.88
2018-07-23T01:46:14.503Z,1011.87
2018-07-23T01:47:14.505Z,1011.84
2018-07-23T01:48:14.522Z,1011.86
2018-07-23T01:49:14.524Z,1011.83
2018-07-23T01:50:14.515Z,1011.85
2018-07-23T01:51:14.520Z,1011.84
2018-07-23T01:52:14.521Z,1011.86
2018-07-23T01:53:14.524Z,1011.87
2018-07-23T01:54:14.534Z,1011.82
2018-07-23T01:55:14.527Z,1011.88
2018-07-23T01:56:14.531Z,1011.86
2018-07-23T01:57:14.544Z,1011.90
2018-07-23T01:58:14.537Z,1011.93
2018-07-23T01:59:14.541Z,1011.92
2018-07-23T02:00:14.543Z,1011.95
2018-07-23T02:01:14.559Z,1011.93
2018-07-23T02:02:14.545Z,1011.93
2018-07-23T02:03:14.561Z,1011.93
2018-07-23T02:04:14.554Z,1011.93
2018-07-23T02:05:14.563Z,1011.94
2018-07-23T02:06:14.568Z,1011.92
2018-07-23T02:07:14.560Z,1011.95
2018-07-23T02:08:14.562Z,1011.96
2018-07-23T02:09:14.568Z,1011.94
2018-07-23T02:10:14.568Z,1011.95
2018-07-23T02:11:14.573Z,1011.94
2018-07-23T02:12:14.573Z,1011.96
2018-07-23T02:13:14.600Z,1011.97
2018-07-23T02:14:14.578Z,1011.98
2018-07-23T02:15:14.582Z,1011.95
2018-07-23T02:16:14.589Z,1011.95
2018-07-23T02:17:14.588Z,1011.98
2018-07-23T02:18:14.601Z,1011.99
2018-07-23T02:19:14.796Z,1011.99
2018-07-23T02:20:14.796Z,1012.01
2018-07-23T02:21:14.598Z,1011.99
2018-07-23T02:22:14.619Z,1011.98
2018-07-23T02:23:14.812Z,1012.00
2018-07-23T02:24:14.617Z,1012.02
2018-07-23T02:25:14.632Z,1012.03
2018-07-23T02:26:14.638Z,1012.02
2018-07-23T02:27:14.621Z,1012.00
2018-07-23T02:28:14.629Z,1012.06
2018-07-23T02:29:14.615Z,1012.03
2018-07-23T02:30:14.617Z,1012.02
2018-07-23T02:31:14.825Z,1012.04
2018-07-23T02:32:14.626Z,1012.01
2018-07-23T02:33:14.628Z,1012.04
2018-07-23T02:34:14.629Z,1012.06
2018-07-23T02:35:14.633Z,1012.03
2018-07-23T02:36:14.633Z,1012.04
2018-07-23T02:37:14.634Z,1012.07
2018-07-23T02:38:14.637Z,1012.09
2018-07-23T02:39:14.840Z,1012.09
2018-07-23T02:40:14.641Z,1012.10
2018-07-23T02:41:14.658Z,1012.09
2018-07-23T02:42:14.668Z,1012.10
2018-07-23T02:43:14.660Z,1012.14
2018-07-23T02:44:14.650Z,1012.12
2018-07-23T02:45:14.652Z,1012.13
2018-07-23T02:46:14.655Z,1012.14
2018-07-23T02:47:14.673Z,1012.14
2018-07-23T02:48:14.672Z,1012.14
2018-07-23T02:49:14.691Z,1012.09
2018-07-23T02:50:14.669Z,1012.09
2018-07-23T02:51:14.667Z,1012.11
2018-07-23T02:52:14.670Z,1012.07
2018-07-23T02:53:14.674Z,1012.09
2018-07-23T02:54:14.686Z,1012.12
2018-07-23T02:55:14.679Z,1012.10
2018-07-23T02:56:14.681Z,1012.09
2018-07-23T02:57:14.885Z,1012.12
2018-07-23T02:58:14.698Z,1012.10
2018-07-23T02:59:14.689Z,1012.10
2018-07-23T03:00:14.691Z,1012.10
2018-07-23T03:01:14.729Z,1012.10
2018-07-23T03:02:14.703Z,1012.10
2018-07-23T03:03:14.695Z,1012.08
2018-07-23T03:04:14.725Z,1012.09
2018-07-23T03:05:14.702Z,1012.09
2018-07-23T03:06:14.719Z,1012.09
2018-07-23T03:07:14.718Z,1012.09
2018-07-23T03:08:14.706Z,1012.08
2018-07-23T03:09:14.714Z,1012.07
2018-07-23T03:10:14.712Z,1012.07
2018-07-23T03:11:14.915Z,1012.09
2018-07-23T03:12:14.717Z,1012.07
2018-07-23T03:13:14.730Z,1012.04
2018-07-23T03:14:14.732Z,1012.06
2018-07-23T03:15:14.753Z,1012.03
2018-07-23T03:16:14.724Z,1012.05
2018-07-23T03:17:14.728Z,1012.05
2018-07-23T03:18:14.733Z,1012.05
2018-07-23T03:19:14.731Z,1012.06
2018-07-23T03:20:14.747Z,1012.10
2018-07-23T03:21:14.767Z,1012.09
2018-07-23T03:22:14.736Z,1012.08
2018-07-23T03:23:14.942Z,1012.10
2018-07-23T03:24:14.758Z,1012.11
2018-07-23T03:25:14.745Z,1012.13
2018-07-23T03:26:14.757Z,1012.11
2018-07-23T03:27:14.952Z,1012.12
2018-07-23T03:28:14.771Z,1012.16
2018-07-23T03:29:14.755Z,1012.14
2018-07-23T03:30:14.762Z,1012.19
2018-07-23T03:31:14.760Z,1012.18
2018-07-23T03:32:14.779Z,1012.21
2018-07-23T03:33:14.762Z,1012.22
2018-07-23T03:34:14.763Z,1012.24
2018-07-23T03:35:14.776Z,1012.24
2018-07-23T03:36:14.768Z,1012.22
2018-07-23T03:37:14.771Z,1012.24
2018-07-23T03:38:14.974Z,1012.26
2018-07-23T03:39:14.773Z,1012.28
2018-07-23T03:40:14.775Z,1012.26
2018-07-23T03:41:14.775Z,1012.28
2018-07-23T03:42:14.777Z,1012.29
2018-07-23T03:43:14.790Z,1012.28
2018-07-23T03:44:14.793Z,1012.31
2018-07-23T03:45:14.784Z,1012.33
2018-07-23T03:46:14.788Z,1012.32
2018-07-23T03:47:14.799Z,1012.33
2018-07-23T03:48:14.993Z,1012.37
2018-07-23T03:49:14.794Z,1012.36
2018-07-23T03:50:14.799Z,1012.37
2018-07-23T03:51:14.797Z,1012.41
2018-07-23T03:52:14.800Z,1012.40
2018-07-23T03:53:14.805Z,1012.41
2018-07-23T03:54:14.801Z,1012.38
2018-07-23T03:55:14.806Z,1012.41
2018-07-23T03:56:14.810Z,1012.40
2018-07-23T03:57:15.011Z,1012.37
2018-07-23T03:58:14.819Z,1012.35
2018-07-23T03:59:14.812Z,1012.35
2018-07-23T04:00:14.843Z,1012.33
2018-07-23T04:01:14.845Z,1012.37
2018-07-23T04:02:14.819Z,1012.36
2018-07-23T04:03:14.842Z,1012.43
2018-07-23T04:04:14.827Z,1012.43
2018-07-23T04:05:14.836Z,1012.39
2018-07-23T04:06:14.825Z,1012.41
2018-07-23T04:07:15.033Z,1012.42
2018-07-23T04:08:14.866Z,1012.45
2018-07-23T04:09:14.844Z,1012.42
2018-07-23T04:10:14.834Z,1012.42
2018-07-23T04:11:14.842Z,1012.43
2018-07-23T04:12:14.837Z,1012.45
2018-07-23T04:13:15.058Z,1012.48
2018-07-23T04:14:14.845Z,1012.43
2018-07-23T04:15:14.845Z,1012.48
2018-07-23T04:16:14.866Z,1012.46
2018-07-23T04:17:14.859Z,1012.46
2018-07-23T04:18:14.866Z,1012.48
2018-07-23T04:19:14.852Z,1012.51
2018-07-23T04:20:14.884Z,1012.50
2018-07-23T04:21:14.867Z,1012.49
2018-07-23T04:22:14.855Z,1012.46
2018-07-23T04:23:14.872Z,1012.50
2018-07-23T04:24:15.067Z,1012.44
2018-07-23T04:25:14.886Z,1012.44
2018-07-23T04:26:14.880Z,1012.48
2018-07-23T04:27:14.880Z,1012.48
2018-07-23T04:28:14.883Z,1012.49
2018-07-23T04:29:14.884Z,1012.48
2018-07-23T04:30:14.897Z,1012.50
2018-07-23T04:31:14.889Z,1012.50
2018-07-23T04:32:14.896Z,1012.51
2018-07-23T04:33:14.892Z,1012.48
2018-07-23T04:34:14.879Z,1012.51
2018-07-23T04:35:14.885Z,1012.45
2018-07-23T04:36:14.901Z,1012.48
2018-07-23T04:37:14.890Z,1012.50
2018-07-23T04:38:14.903Z,1012.47
2018-07-23T04:39:14.893Z,1012.50
2018-07-23T04:40:14.896Z,1012.49
2018-07-23T04:41:14.899Z,1012.52
2018-07-23T04:42:14.946Z,1012.49
2018-07-23T04:43:14.914Z,1012.50
2018-07-23T04:44:14.929Z,1012.50
2018-07-23T04:45:14.904Z,1012.48
2018-07-23T04:46:14.939Z,1012.50
2018-07-23T04:47:14.920Z,1012.54
2018-07-23T04:48:14.911Z,1012.55
2018-07-23T04:49:14.926Z,1012.56
2018-07-23T04:50:14.933Z,1012.56
2018-07-23T04:51:14.921Z,1012.56
2018-07-23T04:52:14.935Z,1012.57
2018-07-23T04:53:14.952Z,1012.57
2018-07-23T04:54:14.939Z,1012.59
2018-07-23T04:55:14.932Z,1012.63
2018-07-23T04:56:14.930Z,1012.60
2018-07-23T04:57:14.950Z,1012.64
2018-07-23T04:58:14.936Z,1012.61
2018-07-23T04:59:14.950Z,1012.63
2018-07-23T05:00:14.940Z,1012.61
2018-07-23T05:01:14.947Z,1012.62
2018-07-23T05:02:14.946Z,1012.63
2018-07-23T05:03:15.152Z,1012.65
2018-07-23T05:04:14.961Z,1012.63
2018-07-23T05:05:15.177Z,1012.64
2018-07-23T05:06:15.018Z,1012.62
2018-07-23T05:07:15.171Z,1012.64
2018-07-23T05:08:14.984Z,1012.65
2018-07-23T05:09:14.982Z,1012.65
2018-07-23T05:10:14.968Z,1012.67
2018-07-23T05:11:14.981Z,1012.69
2018-07-23T05:12:14.974Z,1012.68
2018-07-23T05:13:14.986Z,1012.66
2018-07-23T05:14:14.979Z,1012.65
2018-07-23T05:15:14.997Z,1012.68
2018-07-23T05:16:14.995Z,1012.69
2018-07-23T05:17:15.190Z,1012.68
2018-07-23T05:18:14.989Z,1012.69
2018-07-23T05:19:15.010Z,1012.71
2018-07-23T05:20:14.996Z,1012.70
2018-07-23T05:21:15.016Z,1012.71
2018-07-23T05:22:15.012Z,1012.70
2018-07-23T05:23:15.007Z,1012.72
2018-07-23T05:24:15.031Z,1012.73
2018-07-23T05:25:15.010Z,1012.72
2018-07-23T05:26:15.100Z,1012.74
2018-07-23T05:27:15.026Z,1012.72
2018-07-23T05:28:15.021Z,1012.72
2018-07-23T05:29:15.023Z,1012.72
2018-07-23T05:30:15.027Z,1012.70
2018-07-23T05:31:15.030Z,1012.69
2018-07-23T05:32:15.034Z,1012.69
2018-07-23T05:33:15.037Z,1012.70
2018-07-23T05:34:15.242Z,1012.65
2018-07-23T05:35:15.043Z,1012.64
2018-07-23T05:36:15.267Z,1012.67
2018-07-23T05:37:15.060Z,1012.66
2018-07-23T05:38:15.100Z,1012.68
2018-07-23T05:39:15.268Z,1012.66
2018-07-23T05:40:15.061Z,1012.66
2018-07-23T05:41:15.068Z,1012.68
2018-07-23T05:42:15.069Z,1012.70
2018-07-23T05:43:15.081Z,1012.68
2018-07-23T05:44:15.074Z,1012.69
2018-07-23T05:45:15.109Z,1012.73
2018-07-23T05:46:15.283Z,1012.74
2018-07-23T05:47:15.087Z,1012.74
2018-07-23T05:48:15.098Z,1012.74
2018-07-23T05:49:15.092Z,1012.72
2018-07-23T05:50:15.297Z,1012.74
2018-07-23T05:51:15.303Z,1012.73
2018-07-23T05:52:15.104Z,1012.79
2018-07-23T05:53:15.107Z,1012.77
2018-07-23T05:54:15.110Z,1012.79
2018-07-23T05:55:15.113Z,1012.79
2018-07-23T05:56:15.120Z,1012.78
2018-07-23T05:57:15.130Z,1012.80
2018-07-23T05:58:15.139Z,1012.76
2018-07-23T05:59:15.129Z,1012.75
2018-07-23T06:00:15.366Z,1012.77
2018-07-23T06:01:15.140Z,1012.72
2018-07-23T06:02:15.147Z,1012.76
2018-07-23T06:03:15.160Z,1012.74
2018-07-23T06:04:15.149Z,1012.75
2018-07-23T06:05:15.177Z,1012.76
2018-07-23T06:06:15.200Z,1012.76
2018-07-23T06:07:15.170Z,1012.76
2018-07-23T06:08:15.162Z,1012.78
2018-07-23T06:09:15.169Z,1012.79
2018-07-23T06:10:15.169Z,1012.83
2018-07-23T06:11:15.185Z,1012.80
2018-07-23T06:12:15.181Z,1012.80
2018-07-23T06:13:15.270Z,1012.85
2018-07-23T06:14:15.213Z,1012.80
2018-07-23T06:15:15.203Z,1012.80
2018-07-23T06:16:15.207Z,1012.79
2018-07-23T06:17:15.215Z,1012.81
2018-07-23T06:18:15.221Z,1012.79
2018-07-23T06:19:15.216Z,1012.78
2018-07-23T06:20:15.222Z,1012.76
2018-07-23T06:21:15.221Z,1012.76
2018-07-23T06:22:15.233Z,1012.76
2018-07-23T06:23:15.224Z,1012.76
2018-07-23T06:24:15.244Z,1012.77
2018-07-23T06:25:15.437Z,1012.78
2018-07-23T06:26:15.250Z,1012.76
2018-07-23T06:27:15.240Z,1012.78
2018-07-23T06:28:15.245Z,1012.79
2018-07-23T06:29:15.263Z,1012.79
2018-07-23T06:30:15.256Z,1012.76
2018-07-23T06:31:15.259Z,1012.79
2018-07-23T06:32:15.275Z,1012.83
2018-07-23T06:33:15.470Z,1012.85
2018-07-23T06:34:15.282Z,1012.82
2018-07-23T06:35:15.288Z,1012.84
2018-07-23T06:36:15.287Z,1012.88
2018-07-23T06:37:15.284Z,1012.88
2018-07-23T06:38:15.300Z,1012.89
2018-07-23T06:39:15.291Z,1012.87
2018-07-23T06:40:15.295Z,1012.86
2018-07-23T06:41:15.311Z,1012.84
2018-07-23T06:42:15.304Z,1012.85
2018-07-23T06:43:15.383Z,1012.89
2018-07-23T06:44:15.327Z,1012.92
2018-07-23T06:45:15.316Z,1012.89
2018-07-23T06:46:15.329Z,1012.90
2018-07-23T06:47:15.352Z,1012.92
2018-07-23T06:48:15.334Z,1012.92
2018-07-23T06:49:15.332Z,1012.92
2018-07-23T06:50:15.336Z,1012.92
2018-07-23T06:51:15.340Z,1012.95
2018-07-23T06:52:15.360Z,1012.93
2018-07-23T06:53:15.349Z,1012.91
2018-07-23T06:54:15.355Z,1012.95
2018-07-23T06:55:15.369Z,1012.99
2018-07-23T06:56:15.364Z,1012.99
2018-07-23T06:57:15.426Z,1013.00
2018-07-23T06:58:15.371Z,1012.97
2018-07-23T06:59:15.384Z,1013.00
2018-07-23T07:00:15.408Z,1012.99
2018-07-23T07:01:15.385Z,1013.00
2018-07-23T07:02:15.390Z,1012.99
2018-07-23T07:03:15.445Z,1012.98
2018-07-23T07:04:15.420Z,1013.00
2018-07-23T07:05:15.403Z,1012.98
2018-07-23T07:06:15.420Z,1012.95
2018-07-23T07:07:15.411Z,1012.98
2018-07-23T07:08:15.432Z,1012.97
2018-07-23T07:09:15.637Z,1013.00
2018-07-23T07:10:15.422Z,1013.03
2018-07-23T07:11:15.430Z,1013.00
2018-07-23T07:12:15.443Z,1012.97
2018-07-23T07:13:15.448Z,1012.96
2018-07-23T07:14:15.440Z,1012.95
2018-07-23T07:15:15.466Z,1012.98
2018-07-23T07:16:15.452Z,1012.97
2018-07-23T07:17:15.465Z,1012.95
2018-07-23T07:18:15.457Z,1012.94
2018-07-23T07:19:15.476Z,1013.01
2018-07-23T07:20:15.467Z,1013.00
2018-07-23T07:21:15.476Z,1013.01
2018-07-23T07:22:15.477Z,1013.08
2018-07-23T07:23:15.482Z,1013.07
2018-07-23T07:24:15.488Z,1013.04
2018-07-23T07:25:15.495Z,1013.04
2018-07-23T07:26:15.507Z,1013.05
2018-07-23T07:27:15.512Z,1013.07
2018-07-23T07:28:15.522Z,1013.08
2018-07-23T07:29:15.513Z,1013.08
2018-07-23T07:30:15.526Z,1013.06
2018-07-23T07:31:15.528Z,1013.07
2018-07-23T07:32:15.525Z,1013.06
2018-07-23T07:33:15.531Z,1013.07
2018-07-23T07:34:15.539Z,1013.03
2018-07-23T07:35:15.552Z,1013.05
2018-07-23T07:36:15.560Z,1013.03
2018-07-23T07:37:15.551Z,1013.03
2018-07-23T07:38:15.599Z,1013.04
2018-07-23T07:39:15.558Z,1013.02
2018-07-23T07:40:15.583Z,1012.99
2018-07-23T07:41:15.571Z,1013.00
2018-07-23T07:42:15.584Z,1012.99
2018-07-23T07:43:15.601Z,1013.00
2018-07-23T07:44:15.583Z,1013.02
2018-07-23T07:45:15.600Z,1013.04
2018-07-23T07:46:15.816Z,1013.01
2018-07-23T07:47:15.602Z,1013.01
2018-07-23T07:48:15.607Z,1012.98
2018-07-23T07:49:15.612Z,1012.98
2018-07-23T07:50:15.630Z,1012.96
2018-07-23T07:51:15.821Z,1012.96
2018-07-23T07:52:15.636Z,1012.89
2018-07-23T07:53:15.631Z,1012.94
2018-07-23T07:54:15.632Z,1012.93
2018-07-23T07:55:15.640Z,1012.94
2018-07-23T07:56:15.903Z,1012.88
2018-07-23T07:57:15.653Z,1012.90
2018-07-23T07:58:15.666Z,1012.87
2018-07-23T07:59:15.716Z,1012.92
2018-07-23T08:00:15.666Z,1012.87
2018-07-23T08:01:15.683Z,1012.89
2018-07-23T08:02:15.700Z,1012.89
2018-07-23T08:03:15.694Z,1012.94
2018-07-23T08:04:15.686Z,1012.88
2018-07-23T08:05:15.692Z,1012.90
2018-07-23T08:06:15.700Z,1012.90
2018-07-23T08:07:15.801Z,1012.92
2018-07-23T08:08:15.724Z,1012.88
2018-07-23T08:09:15.727Z,1012.89
2018-07-23T08:10:15.923Z,1012.86
2018-07-23T08:11:15.725Z,1012.89
2018-07-23T08:12:15.951Z,1012.88
2018-07-23T08:13:15.754Z,1012.91
2018-07-23T08:14:15.958Z,1012.88
2018-07-23T08:15:15.747Z,1012.87
2018-07-23T08:16:15.754Z,1012.93
2018-07-23T08:17:15.759Z,1012.92
2018-07-23T08:18:15.966Z,1012.90
2018-07-23T08:19:15.773Z,1012.89
2018-07-23T08:20:15.776Z,1012.90
2018-07-23T08:21:15.781Z,1012.92
2018-07-23T08:22:15.987Z,1012.92
2018-07-23T08:23:15.793Z,1012.90
2018-07-23T08:24:15.797Z,1012.92
2018-07-23T08:25:15.818Z,1012.94
2018-07-23T08:26:15.807Z,1012.95
2018-07-23T08:27:15.828Z,1012.95
2018-07-23T08:28:15.830Z,1012.94
2018-07-23T08:29:15.826Z,1012.97
2018-07-23T08:30:15.841Z,1012.95
2018-07-23T08:31:15.838Z,1012.98
2018-07-23T08:32:15.897Z,1012.99
2018-07-23T08:33:15.858Z,1012.96
2018-07-23T08:34:15.851Z,1012.94
2018-07-23T08:35:15.867Z,1012.96
2018-07-23T08:36:15.864Z,1012.97
2018-07-23T08:37:15.902Z,1012.97
2018-07-23T08:38:15.872Z,1013.00
2018-07-23T08:39:15.889Z,1012.93
2018-07-23T08:40:15.883Z,1012.96
2018-07-23T08:41:15.891Z,1012.96
2018-07-23T08:42:15.894Z,1012.98
2018-07-23T08:43:15.906Z,1012.97
2018-07-23T08:44:15.908Z,1013.01
2018-07-23T08:45:15.914Z,1013.00
2018-07-23T08:46:15.916Z,1012.99
2018-07-23T08:47:15.925Z,1013.01
2018-07-23T08:48:15.939Z,1012.99
2018-07-23T08:49:15.936Z,1012.98
2018-07-23T08:50:15.940Z,1012.94
2018-07-23T08:51:15.999Z,1012.95
2018-07-23T08:52:15.951Z,1012.93
2018-07-23T08:53:15.958Z,1012.95
2018-07-23T08:54:15.974Z,1012.93
2018-07-23T08:55:15.968Z,1012.96
2018-07-23T08:56:15.991Z,1012.96
2018-07-23T08:57:16.010Z,1012.95
2018-07-23T08:58:15.984Z,1012.98
2018-07-23T08:59:15.990Z,1012.97
2018-07-23T09:00:15.996Z,1012.96
2018-07-23T09:01:16.011Z,1012.96
2018-07-23T09:02:16.066Z,1012.96
2018-07-23T09:03:16.013Z,1012.95
2018-07-23T09:04:16.037Z,1012.97
2018-07-23T09:05:16.049Z,1012.97
2018-07-23T09:06:16.029Z,1013.02
2018-07-23T09:07:16.037Z,1013.01
2018-07-23T09:08:16.040Z,1012.98
2018-07-23T09:09:16.059Z,1013.05
2018-07-23T09:10:16.054Z,1012.98
2018-07-23T09:11:16.088Z,1013.04
2018-07-23T09:12:16.066Z,1013.04
2018-07-23T09:13:16.072Z,1013.06
2018-07-23T09:14:16.074Z,1013.05
2018-07-23T09:15:16.286Z,1013.01
2018-07-23T09:16:16.304Z,1013.05
2018-07-23T09:17:16.174Z,1013.03
2018-07-23T09:18:16.099Z,1013.01
2018-07-23T09:19:16.104Z,1013.03
2018-07-23T09:20:16.119Z,1013.03
2018-07-23T09:21:16.132Z,1013.05
2018-07-23T09:22:16.133Z,1013.05
2018-07-23T09:23:16.145Z,1013.05
2018-07-23T09:24:16.133Z,1013.05
2018-07-23T09:25:16.138Z,1013.06
2018-07-23T09:26:16.359Z,1013.02
2018-07-23T09:27:16.352Z,1013.03
2018-07-23T09:28:16.155Z,1013.05
2018-07-23T09:29:16.163Z,1013.02
2018-07-23T09:30:16.226Z,1013.03
2018-07-23T09:31:16.171Z,1013.03
2018-07-23T09:32:16.380Z,1013.06
2018-07-23T09:33:16.187Z,1013.03
2018-07-23T09:34:16.394Z,1013.03
2018-07-23T09:35:16.195Z,1013.02
2018-07-23T09:36:16.200Z,1013.01
2018-07-23T09:37:16.267Z,1013.03
2018-07-23T09:38:16.221Z,1013.02
2018-07-23T09:39:16.219Z,1013.02
2018-07-23T09:40:16.226Z,1013.03
2018-07-23T09:41:16.231Z,1013.01
2018-07-23T09:42:16.233Z,1012.96
2018-07-23T09:43:16.442Z,1012.99
2018-07-23T09:44:16.244Z,1012.97
2018-07-23T09:45:16.263Z,1012.95
2018-07-23T09:46:16.472Z,1012.98
2018-07-23T09:47:16.272Z,1012.98
2018-07-23T09:48:16.270Z,1012.99
2018-07-23T09:49:16.286Z,1012.97
2018-07-23T09:50:16.481Z,1012.99
2018-07-23T09:51:16.285Z,1012.96
2018-07-23T09:52:16.504Z,1012.95
2018-07-23T09:53:16.322Z,1012.93
2018-07-23T09:54:16.516Z,1012.99
2018-07-23T09:55:16.323Z,1012.99
2018-07-23T09:56:16.318Z,1012.96
2018-07-23T09:57:16.334Z,1012.99
2018-07-23T09:58:16.325Z,1012.97
2018-07-23T09:59:16.534Z,1012.94
2018-07-23T10:00:16.354Z,1012.92
2018-07-23T10:01:16.345Z,1012.93
2018-07-23T10:02:16.346Z,1012.91
2018-07-23T10:03:16.466Z,1012.91
2018-07-23T10:04:16.359Z,1012.93
2018-07-23T10:05:16.397Z,1012.95
2018-07-23T10:06:16.382Z,1012.92
2018-07-23T10:07:16.377Z,1012.92
2018-07-23T10:08:16.399Z,1012.89
2018-07-23T10:09:16.388Z,1012.88
2018-07-23T10:10:16.396Z,1012.86
2018-07-23T10:11:16.401Z,1012.86
2018-07-23T10:12:16.405Z,1012.85
2018-07-23T10:13:16.411Z,1012.88
2018-07-23T10:14:16.416Z,1012.86
2018-07-23T10:15:16.424Z,1012.85
2018-07-23T10:16:16.630Z,1012.88
2018-07-23T10:17:16.435Z,1012.85
2018-07-23T10:18:16.445Z,1012.89
2018-07-23T10:19:16.445Z,1012.88
2018-07-23T10:20:16.455Z,1012.87
2018-07-23T10:21:16.462Z,1012.86
2018-07-23T10:22:16.479Z,1012.83
2018-07-23T10:23:16.485Z,1012.80
2018-07-23T10:24:16.488Z,1012.86
2018-07-23T10:25:16.484Z,1012.86
2018-07-23T10:26:16.491Z,1012.86
2018-07-23T10:27:16.512Z,1012.83
2018-07-23T10:28:16.502Z,1012.85
2018-07-23T10:29:16.528Z,1012.80
2018-07-23T10:30:16.527Z,1012.81
2018-07-23T10:31:16.518Z,1012.77
2018-07-23T10:32:16.524Z,1012.82
2018-07-23T10:33:16.541Z,1012.83
2018-07-23T10:34:16.534Z,1012.79
2018-07-23T10:35:16.542Z,1012.87
2018-07-23T10:36:16.563Z,1012.85
2018-07-23T10:37:16.553Z,1012.85
2018-07-23T10:38:16.561Z,1012.87
2018-07-23T10:39:16.567Z,1012.85
2018-07-23T10:40:16.598Z,1012.83
2018-07-23T10:41:16.794Z,1012.84
2018-07-23T10:42:16.596Z,1012.83
2018-07-23T10:43:16.617Z,1012.83
2018-07-23T10:44:16.611Z,1012.78
2018-07-23T10:45:16.605Z,1012.82
2018-07-23T10:46:16.622Z,1012.80
2018-07-23T10:47:16.619Z,1012.75
2018-07-23T10:48:16.639Z,1012.77
2018-07-23T10:49:16.644Z,1012.74
2018-07-23T10:50:16.643Z,1012.74
2018-07-23T10:51:16.642Z,1012.72
2018-07-23T10:52:16.853Z,1012.75
2018-07-23T10:53:16.654Z,1012.71
2018-07-23T10:54:16.674Z,1012.67
2018-07-23T10:55:16.665Z,1012.66
2018-07-23T10:56:16.686Z,1012.73
2018-07-23T10:57:16.760Z,1012.71
2018-07-23T10:58:16.700Z,1012.74
2018-07-23T10:59:16.694Z,1012.74
2018-07-23T11:00:16.923Z,1012.73
2018-07-23T11:01:16.714Z,1012.74
2018-07-23T11:02:16.710Z,1012.77
2018-07-23T11:03:16.720Z,1012.71
2018-07-23T11:04:16.784Z,1012.75
2018-07-23T11:05:16.736Z,1012.74
2018-07-23T11:06:16.736Z,1012.69
2018-07-23T11:07:16.781Z,1012.67
2018-07-23T11:08:16.748Z,1012.69
2018-07-23T11:09:16.959Z,1012.66
2018-07-23T11:10:16.776Z,1012.66
2018-07-23T11:11:16.771Z,1012.61
2018-07-23T11:12:16.777Z,1012.61
2018-07-23T11:13:16.781Z,1012.64
2018-07-23T11:14:16.787Z,1012.66
2018-07-23T11:15:16.792Z,1012.66
2018-07-23T11:16:16.798Z,1012.69
2018-07-23T11:17:16.807Z,1012.73
2018-07-23T11:18:16.831Z,1012.67
2018-07-23T11:19:16.909Z,1012.59
2018-07-23T11:20:16.826Z,1012.61
2018-07-23T11:21:16.831Z,1012.59
2018-07-23T11:22:16.836Z,1012.67
2018-07-23T11:23:16.864Z,1012.64
2018-07-23T11:24:16.859Z,1012.66
2018-07-23T11:25:38.703Z,1012.63
2018-07-23T11:26:16.879Z,1012.64
2018-07-23T11:27:16.884Z,1012.64
2018-07-23T11:28:17.090Z,1012.67
2018-07-23T11:29:16.880Z,1012.63
2018-07-23T11:30:16.885Z,1012.68
2018-07-23T11:31:16.890Z,1012.65
2018-07-23T11:32:16.900Z,1012.68
2018-07-23T11:33:16.916Z,1012.65
2018-07-23T11:34:16.922Z,1012.64
2018-07-23T11:35:16.929Z,1012.66
2018-07-23T11:36:16.928Z,1012.64
2018-07-23T11:37:17.149Z,1012.68
2018-07-23T11:38:17.140Z,1012.66
2018-07-23T11:39:16.943Z,1012.66
2018-07-23T11:40:16.948Z,1012.66
2018-07-23T11:41:16.953Z,1012.60
2018-07-23T11:42:17.167Z,1012.60
2018-07-23T11:43:16.970Z,1012.60
2018-07-23T11:44:17.192Z,1012.65
2018-07-23T11:45:17.047Z,1012.61
2018-07-23T11:46:24.983Z,1012.65
2018-07-23T11:47:17.083Z,1012.63
2018-07-23T11:48:17.010Z,1012.60
2018-07-23T11:49:17.007Z,1012.56
2018-07-23T11:50:17.013Z,1012.59
2018-07-23T11:51:17.020Z,1012.58
2018-07-23T11:52:17.041Z,1012.63
2018-07-23T11:53:17.067Z,1012.63
2018-07-23T11:54:17.051Z,1012.59
2018-07-23T11:55:17.257Z,1012.57
2018-07-23T11:56:17.063Z,1012.59
2018-07-23T11:57:17.070Z,1012.60
2018-07-23T11:58:17.062Z,1012.63
2018-07-23T11:59:17.073Z,1012.60
2018-07-23T12:00:17.086Z,1012.56
2018-07-23T12:01:17.096Z,1012.59
2018-07-23T12:02:17.111Z,1012.57
2018-07-23T12:03:17.108Z,1012.54
2018-07-23T12:04:17.155Z,1012.54
2018-07-23T12:05:17.120Z,1012.58